CLASSIFICA

Trofeo Xc Rh

DIVISIONI:
XC     CLASSIFICA:   ASSOLUTA    UISP     OPEN    
CATEGORIE:   TUTTE    |   ALLIEVI   |   ELITE_SPORT   |   ELITE_WOMEN   |   MASTER_1   |   MASTER_2   |   MASTER_3   |   MASTER_4   |   MASTER_5   |   MASTER_6+  
FILTRO:
  Atleta      Team        Pulisci       Atleti classificati XC: 105  

Cliccare sulle colonne per cambiare ordinamento Pagina:   | 1 | | 2 | | 3 |
Pos. M/F Cat. P.Cat. Pett Atleta Squadra Tempo Distacco Giri Tempo finale Fraz. G1 Pos. G1 Fraz. G2 Pos. G2 Fraz. G3 Pos. G3 Fraz. G4 Pos. G4
11MASTER_412FITTIPALDI ALESSANDROCICLISPORT2000 FOCUS BIKE TEAM01:35:03,520 4 01:35:03,520 00:24:04,913 1 00:23:04,918 1 00:23:25,955 1 00:24:27,734 1
22MASTER_1164LISI STEFANOASD CHIALA' CYCLING TEAM LOCOROTONDO01:36:07,009+01:04 4 01:36:07,009 00:24:10,847 3 00:23:32,479 2 00:23:59,188 2 00:24:24,495 2
33MASTER_216CATTEDRA COSIMOASD NRG BIKE01:37:48,736+02:45 4 01:37:48,736 00:24:09,320 2 00:24:22,054 3 00:24:39,929 3 00:24:37,433 3
44ELITE_SPORT138PASTORE GIUSEPPEBIKING TEAM CASSANO01:37:51,863+02:48 4 01:37:51,863 00:25:18,042 4 00:24:37,550 5 00:24:16,077 4 00:23:40,194 4
55ELITE_SPORT2220BOSSIS FERDINANDOCYCLON STORE.IT01:39:11,583+04:08 4 01:39:11,583 00:25:31,088 5 00:24:23,818 4 00:24:23,101 5 00:24:53,576 5
66MASTER_22212GRECO MANUELEASCD AMICI DEL VELODROMO01:41:15,795+06:12 4 01:41:15,795 00:26:06,577 7 00:24:49,695 6 00:25:14,309 6 00:25:05,214 6
77MASTER_1213PISTOIA ANTONELLOCHIALA' CYCLING TEAM LOCOROTONDO01:42:36,240+07:33 4 01:42:36,240 00:26:07,800 9 00:25:30,971 7 00:25:36,454 7 00:25:21,015 7
88MASTER_133FELICE ANGELOASD NEW CYCLING TEAM01:42:38,084+07:35 4 01:42:38,084 00:26:11,513 10 00:25:28,828 8 00:25:42,272 9 00:25:15,471 8
99MASTER_235DONVITO PAOLORH BIKE TEAM01:43:05,823+08:02 4 01:43:05,823 00:26:05,832 6 00:25:50,958 9 00:25:25,157 8 00:25:43,876 9
1010MASTER_1414GUAGNANO PAOLORH BIKE TEAM01:43:55,921+08:52 4 01:43:55,921 00:27:10,163 17 00:26:02,771 13 00:25:22,184 10 00:25:20,803 10
1111MASTER_2489DADDABBO GINOASD NRG BIKE01:44:07,364+09:04 4 01:44:07,364 00:26:07,116 8 00:26:17,296 10 00:26:11,816 12 00:25:31,136 11
1212MASTER_3147PUGLIESE VINCENZORH BIKE TEAM01:44:33,448+09:30 4 01:44:33,448 00:28:13,105 22 00:25:12,247 14 00:25:32,856 14 00:25:35,240 12
1313MASTER_32219LOVECCHIO ANTONIOCYCLON STORE.IT01:44:34,578+09:31 4 01:44:34,578 00:26:48,121 12 00:26:08,609 12 00:25:39,376 11 00:25:58,472 13
1414MASTER_3318LOTESORIERE MIMMOBIKEMANIA GROTTAGLIE01:44:34,583+09:31 4 01:44:34,583 00:27:00,947 15 00:26:25,092 15 00:25:28,953 13 00:25:39,591 14
1515MASTER_2515ETTORRE GIUSEPPEBIKEMANIA GROTTAGLIE01:47:30,827+12:27 4 01:47:30,827 00:26:47,469 11 00:26:08,643 11 00:26:59,947 15 00:27:34,768 15
1616MASTER_51180SORIANO GAETANOASD OROVERDE BITONTO01:47:55,072+12:52 4 01:47:55,072 00:29:59,535 40 00:26:07,117 28 00:26:16,293 21 00:25:32,127 16
1717MASTER_3474CONVERTINO DOMENICOASD MTB CITTA DEGLI IMPERIALI01:48:00,337+12:57 4 01:48:00,337 00:27:29,624 19 00:26:54,496 20 00:26:24,431 17 00:27:11,786 17
1818MASTER_1521PANTALEO STEFANOASD MTB CITTA DEGLI IMPERIALI01:48:00,525+12:57 4 01:48:00,525 00:26:57,534 14 00:26:37,307 16 00:27:13,398 16 00:27:12,286 18
1919MASTER_2616PILLILINI CRISTIANRH BIKE TEAM01:48:52,312+13:49 4 01:48:52,312 00:29:10,821 29 00:26:28,376 26 00:26:45,047 24 00:26:28,068 19
2020MASTER_27164MORO ORONZOLONGO RACING TEAM01:48:58,343+13:55 4 01:48:58,343 00:28:47,610 23 00:26:37,731 24 00:26:58,147 22 00:26:34,855 20
2121MASTER_35216MUSIELLO ALFREDOCICLISPORT2000 FOCUS BIKE TEAM01:49:00,021+13:57 4 01:49:00,021 00:27:31,146 21 00:26:06,786 17 00:27:11,233 18 00:28:10,856 21
2222MASTER_4222BALESTRA PIETROASD MTB CITTA DEGLI IMPERIALI01:49:27,945+14:24 4 01:49:27,945 00:27:30,297 20 00:27:02,240 21 00:27:45,381 20 00:27:10,027 22
2323MASTER_3619GIANFRATE LEONARDOASD CHIALA' CYCLING TEAM LOCOROTONDO01:49:37,127+14:34 4 01:49:37,127 00:27:10,767 18 00:27:00,832 18 00:27:23,221 19 00:28:02,307 23
2424MASTER_16218DELUCIA ANTONIOASD NRGBIKE01:50:23,863+15:20 4 01:50:23,863 00:28:48,088 25 00:26:14,985 23 00:27:20,703 23 00:28:00,087 24
2525MASTER_3781PRUDENTINO PIETROBICI CLUB OSTUNI01:50:33,441+15:30 4 01:50:33,441 00:29:33,139 36 00:26:43,995 31 00:26:48,686 26 00:27:27,621 25
2626ELITE_SPORT3136LAMUSTA LORENZOASD CICLISTICA SAVESE01:50:41,236+15:38 4 01:50:41,236 00:28:47,750 24 00:26:37,801 25 00:26:59,126 25 00:28:16,559 26
2727MASTER_38166GATTULLI ORAZIOBIKEMANIA GROTTAGLIE01:51:10,324+16:07 4 01:51:10,324 00:29:01,827 27 00:27:03,951 27 00:27:46,581 28 00:27:17,965 27
2828MASTER_28749APRILE EMANUELEMAGLIE BIKE01:51:11,824+16:08 4 01:51:11,824 00:27:01,546 16 00:27:41,163 22 00:28:25,739 27 00:28:03,376 28
2929MASTER_39211CALELLA GIUSEPPECHIALA' CYCLING TEAM LOCOROTONDO01:51:15,057+16:12 4 01:51:15,057 00:30:31,192 45 00:27:27,993 37 00:26:28,571 29 00:26:47,301 29
3030MASTER_2927MANCINI GIACOMOPOLISPORT CICLO CLUB FASANO01:52:17,645+17:14 4 01:52:17,645 00:29:30,013 33 00:27:55,315 34 00:27:23,128 31 00:27:29,189 30
3131MASTER_52197BRESCIA RAFFAELEPOLISPORT CICLO CLUB FASANO01:52:17,714+17:14 4 01:52:17,714 00:29:35,353 37 00:26:40,402 29 00:28:34,225 33 00:27:27,734 31
3232MASTER_31031LIPPOLIS GIANVITOASD AMATORI PUTIGNANO01:52:30,159+17:27 4 01:52:30,159 00:29:45,563 38 00:27:42,040 36 00:27:57,609 35 00:27:04,947 32
3333ELITE_SPORT4170PUGLIESE DANIELEASD TEKNO BIKE PUTIGNANO01:52:42,120+17:39 4 01:52:42,120 00:29:29,647 32 00:27:31,187 33 00:27:48,718 32 00:27:52,568 33
3434MASTER_21044LEO CLAUDIOASD LABICICLETTASTORE.IT01:53:04,505+18:01 4 01:53:04,505 00:26:56,586 13 00:27:25,103 19 00:32:03,592 36 00:26:39,224 34
3535MASTER_211162NARDELLI COSIMOASD MTB CITTA DEGLI IMPERIALI01:53:32,887+18:29 4 01:53:32,887 00:29:02,911 28 00:27:13,245 30 00:28:21,077 30 00:28:55,654 35
3636MASTER_1737PIZZUTILO MAURIZIOASD AMATORI PUTIGNANO01:56:05,059+21:02 4 01:56:05,059 00:30:01,947 41 00:28:14,130 39 00:28:33,861 37 00:29:15,121 36
3737ELITE_SPORT543D'EREDITA' MARCOASD LABICICLETTASTORE.IT01:56:13,428+21:10 4 01:56:13,428 00:30:03,958 44 00:28:00,596 38 00:29:20,527 39 00:28:48,347 37
3838MASTER_21225CARAFA DARIOALL BLACKS BIKE01:56:15,171+21:12 4 01:56:15,171 00:29:28,121 31 00:27:57,759 35 00:29:44,462 38 00:29:04,829 38
3939ALLIEVI130ROBERTI CRISTIANCICLISPORT2000 FOCUS BIKE TEAM01:56:31,623+21:28 4 01:56:31,623 00:28:49,440 26 00:27:28,447 32 00:28:43,756 34 00:31:29,980 39
4040MASTER_43133STRIDI SALVATOREASD MAGLIANO TEAM01:56:43,324+21:40 4 01:56:43,324 00:29:31,758 34 00:29:48,247 41 00:28:59,571 40 00:28:23,748 40
4141MASTER_311168VALENTE SALVATORECARBINIA BIKE CAROVIGNO01:57:05,874+22:02 4 01:57:05,874 00:29:32,286 35 00:29:48,713 42 00:28:59,239 41 00:28:45,636 41
4242ELITE_SPORT663D'ARCANGELO LUIGIASD CHIALA' CYCLING TEAM LOCOROTONDO01:57:09,258+22:06 4 01:57:09,258 00:32:09,757 63 00:28:00,752 46 00:28:32,571 42 00:28:26,178 42
4343MASTER_21376SEMERARO ANTONIOASD MTB CITTA DEGLI IMPERIALI01:59:38,363+24:35 4 01:59:38,363 00:30:37,498 47 00:28:45,236 43 00:29:56,858 44 00:30:18,771 43
4444MASTER_312160VITALE GERARDOTORTORABIKESCOM PEDALE POLLESE01:59:44,605+24:41 4 01:59:44,605 00:31:15,984 54 00:29:05,363 47 00:29:42,455 46 00:29:40,803 44
4545MASTER_1869FRANCO VITOTEAM PUGLIABIKE02:01:13,028+26:10 4 02:01:13,028 00:29:12,461 30 00:30:10,518 44 00:29:55,362 43 00:31:54,687 45
4646ELITE_SPORT7195TRISCIUZZI FABIOPOLISPORT CICLO CLUB FASANO02:01:13,305+26:10 4 02:01:13,305 00:30:33,750 46 00:28:49,287 45 00:29:56,735 45 00:31:53,533 46
4747MASTER_4459GIANNUZZI PIERANGELOASD GSC NARDUCCI02:01:45,213+26:42 4 02:01:45,213 00:30:45,652 51 00:29:44,009 48 00:30:08,160 47 00:31:07,392 47
4848MASTER_53172MY LEONARDOASD GSC 2001 MANDURIA02:03:15,119+28:12 4 02:03:15,119 00:31:56,892 59 00:29:54,399 55 00:30:23,225 51 00:31:00,603 48
4949ELITE_SPORT8135PICCIONE ANTONIOASD CICLISTICA SAVESE02:03:40,616+28:37 4 02:03:40,616 00:29:48,805 39 00:29:18,735 40 00:32:47,459 49 00:31:45,617 49
5050ALLIEVI2134PICCIONE LORENZOASD CICLISTICA SAVESE02:03:40,710+28:37 4 02:03:40,710 00:31:10,928 53 00:29:23,831 49 00:31:20,939 50 00:31:45,012 50
5151MASTER_31320ROSSANI LORENZOMTB TEBAIDE MASSAFRA02:03:41,519+28:38 4 02:03:41,519 00:31:57,233 60 00:29:53,661 54 00:30:51,282 54 00:30:59,343 51
5252MASTER_21468RENNA CATALDOPOLISPORT CICLO CLUB FASANO02:03:41,826+28:38 4 02:03:41,826 00:30:46,209 52 00:29:54,269 50 00:30:50,739 48 00:32:10,609 52
5353MASTER_21541PINTO ANDREAASD GSC NARDUCCI02:03:46,854+28:43 4 02:03:46,854 00:32:12,906 64 00:29:58,899 58 00:30:08,199 52 00:31:26,850 53
5454MASTER_6+1209MARINO PASQUALEASD HERACLEA BIKE - MARINO BICI & SPORT02:04:33,881+29:30 4 02:04:33,881 00:31:56,291 58 00:30:23,170 59 00:30:25,044 55 00:31:49,376 54
5555MASTER_19720STELLA GIORGIOASDTEAM AURISPA02:04:58,374+29:55 4 02:04:58,374 00:30:38,404 48 00:30:07,917 53 00:31:58,423 56 00:32:13,630 55
5656MASTER_314121MARZIA NICOLAMTB TEBAIDE MASSAFRA02:05:18,315+30:15 4 02:05:18,315 00:31:57,932 61 00:30:55,144 62 00:31:13,018 62 00:31:12,221 56
5757MASTER_6+2146MARTUCCI WALTERALL BLACKS BIKE02:05:48,698+30:45 4 02:05:48,698 00:32:22,023 66 00:30:42,925 63 00:30:06,016 57 00:32:37,734 57
5858ALLIEVI3259NACCI ANTONIOASD CHIALA' CYCLING TEAM LOCOROTONDO02:06:06,601+31:03 4 02:06:06,601 00:30:44,730 50 00:29:59,081 51 00:31:56,015 53 00:33:26,775 58
5959ELITE_SPORT99CONTE COSIMO ANTONIOASD CICLISTI MTB SAN PANCRAZIO SALENTINO02:06:07,640+31:04 4 02:06:07,640 00:30:02,726 42 00:31:55,776 56 00:31:12,708 58 00:32:56,430 59
6060MASTER_315139TAURISANO GIUSEPPEASD MTB CITTA DEGLI IMPERIALI02:06:35,356+31:32 4 02:06:35,356 00:31:49,474 56 00:30:54,139 60 00:31:13,389 61 00:32:38,354 60
6161MASTER_5445DEANDRI VITOANTONIORH BIKE TEAM02:07:18,196+32:15 4 02:07:18,196 00:31:56,059 57 00:30:52,466 61 00:30:29,689 60 00:33:59,982 61
6262MASTER_6+3199LORUSSO ANTONIOASD CHIALA' CYCLING TEAM LOCOROTONDO02:07:36,222+32:33 4 02:07:36,222 00:30:03,376 43 00:30:42,109 52 00:32:25,858 59 00:34:24,879 62
6363MASTER_316194POTENZA ALFREDOPOLISPORT CICLO CLUB FASANO02:07:49,490+32:46 4 02:07:49,490 00:31:40,112 55 00:30:25,040 57 00:32:13,616 63 00:33:30,722 63
6464MASTER_55188PIZZALEO DOMENICOASD GSC 2001 MANDURIAnull+23:24:57 3 01:35:03,063 00:32:46,009 70 00:31:25,493 68 00:30:51,561 64 *** ***
6565MASTER_56117GAMARRO PIEROMTB TEBAIDE MASSAFRAnull+23:24:57 3 01:35:14,406 00:32:06,450 62 00:31:24,223 64 00:31:43,733 65 *** ***
6666MASTER_216214PUGLIESE EMANUELEALL BLACKS BIKEnull+23:24:57 3 01:35:19,887 00:32:33,760 68 00:31:08,601 65 00:31:37,526 66 *** ***
6767MASTER_11088MAGGIORE PIERFRANCESCOTEAM PUGLIABIKEnull+23:24:57 3 01:35:58,528 00:32:14,245 65 00:31:28,942 66 00:32:15,341 67 *** ***
6868MASTER_217171GUARINI FABRIZIOMTB TARANTO BIKERSnull+23:24:57 3 01:36:07,400 00:35:26,475 88 00:30:31,225 78 00:30:09,700 68 *** ***
6969MASTER_6+4217DE CAROLIS FRANCESCOTHE BIKESnull+23:24:57 3 01:36:15,112 00:32:53,136 73 00:31:41,395 69 00:31:40,581 69 *** ***
7070MASTER_5729BRUNO COSIMOBLACK LIONS MTB STATTEnull+23:24:57 3 01:36:44,533 00:32:58,375 74 00:31:50,560 73 00:31:55,598 70 *** ***
7171MASTER_45213FORTUNATO GROTTATEAM MURGIA BIKE SANTERAMOnull+23:24:57 3 01:36:57,771 00:33:49,512 79 00:32:09,182 79 00:30:59,077 71 *** ***
7272MASTER_218176POLITANO GIANLUCAASD SPORT BIKE SALICEnull+23:24:57 3 01:36:58,023 00:33:35,605 77 00:32:37,872 80 00:30:44,546 72 *** ***
7373MASTER_6+5181RINALDI FRANCESCOASD POLICORO BIKE CYCLO PLANETnull+23:24:57 3 01:37:00,440 00:33:06,592 75 00:32:22,301 75 00:31:31,547 73 *** ***
7474MASTER_21979SEMERARO GIANFRANCOASD GS PEDALE MASSAFRAnull+23:24:57 3 01:37:09,154 00:34:11,498 82 00:31:12,806 74 00:31:44,850 74 *** ***
7575MASTER_220175METRANGOLO ANTONIOASD SPORT BIKE SALICEnull+23:24:57 3 01:37:53,035 00:33:27,561 76 00:32:01,690 76 00:32:23,784 75 *** ***
7676MASTER_58115CARDONE FERNANDO ANTONIOMTB TEBAIDE MASSAFRAnull+23:24:57 3 01:38:14,376 00:32:51,203 71 00:31:49,892 72 00:33:33,281 76 *** ***
7777ALLIEVI4206STALLO GIUSEPPETERRANOSTRA TEAM BIKEnull+23:24:57 3 01:38:43,111 00:30:40,038 49 00:33:30,601 67 00:34:32,472 77 *** ***
7878MASTER_31777LIPPOLIS FRANCESCOUISP TARANTOnull+23:24:57 3 01:39:13,030 00:32:42,975 69 00:31:54,886 70 00:34:35,169 78 *** ***
7979MASTER_111152INTERMITE GIUSEPPEASD SOUTH BIKE CLUBnull+23:24:57 3 01:39:47,294 00:33:37,149 78 00:32:14,046 77 00:33:56,099 79 *** ***
8080MASTER_5939PASTORE FRANCESCOBIKING TEAM CASSANOnull+23:24:57 3 01:40:13,042 00:35:11,389 85 00:32:46,103 84 00:32:15,550 80 *** ***
8181MASTER_4648PAGLIARI COSIMOMTB TEBAIDE MASSAFRAnull+23:24:57 3 01:40:14,348 00:33:51,756 80 00:33:09,516 82 00:33:13,076 81 *** ***
8282MASTER_112156CHIRONE COSIMOWILD TEAMnull+23:24:57 3 01:41:55,861 00:35:12,744 87 00:34:05,420 88 00:32:37,697 82 *** ***
8383MASTER_221189RODIO TOMMASOASD NRG BIKEnull+23:24:57 3 01:42:24,959 00:34:03,148 81 00:33:00,599 83 00:35:21,212 83 *** ***
8484MASTER_31861DE MARINIS GIANROCCOASD I PIRATInull+23:24:57 3 01:42:36,375 00:36:42,959 94 00:32:33,546 87 00:33:19,870 84 *** ***
8585MASTER_47745GIACCHETTA NICOLATEAM EVOLUZIONEnull+23:24:57 3 01:42:54,345 00:34:44,053 84 00:33:33,983 85 00:34:36,309 85 *** ***
8686MASTER_113205MANIGRASSO GIOVANNITERRANOSTRA TEAM BIKEnull+23:24:57 3 01:43:44,787 00:35:12,288 86 00:33:10,311 86 00:35:22,188 86 *** ***
871ELITE_WOMEN1204TROPIANO PATRIZIAUCD RIONERO IL VELOCIFEROnull+23:24:57 3 01:44:12,701 00:37:49,425 96 00:32:57,922 93 00:33:25,354 87 *** ***
8887MASTER_6+6173MOSCOGIURI LEONARDOASD GSC 2001 MANDURIAnull+23:24:57 3 01:44:43,076 00:36:34,367 93 00:34:00,237 91 00:34:08,472 88 *** ***
8988MASTER_222222DE MITRI LUCAMTB TARANTO BIKERSnull+23:24:57 3 01:45:05,883 00:36:08,252 90 00:34:26,169 90 00:34:31,462 89 *** ***
9089MASTER_319132MORLEO PASQUALEASD CICLISTI MTB SAN PANCRAZIO SALENTINOnull+23:24:57 3 01:45:05,892 00:34:33,516 83 00:35:56,217 89 00:34:36,159 90 *** ***
9190MASTER_510202PINTO PASQUALEASD CHIALA' CYCLING TEAM LOCOROTONDOnull+23:24:57 3 01:45:42,415 00:36:12,738 91 00:34:46,839 94 00:34:42,838 91 *** ***
9291MASTER_48734CONTE PAOLO ANTONIOASD VELOFANSnull+23:24:57 3 01:46:39,295 00:35:36,737 89 00:35:10,602 92 00:35:51,956 92 *** ***
9392MASTER_11458MICCOLI ANGELOTERRANOSTRA TEAM BIKEnull+23:24:57 3 01:50:02,774 00:32:23,006 67 00:34:00,908 81 00:43:38,860 93 *** ***
9493ALLIEVI5174GRAVILE MATTEOASD CICLISTI MTB SAN PANCRAZIO SALENTINOnull+23:24:57 3 01:52:09,128 00:36:28,274 92 00:37:05,414 95 00:38:35,440 94 *** ***
9594MASTER_22390DILORENZO ANTONIOASD GS PEDALE MASSAFRAnull+23:24:57 3 01:56:07,002 00:38:04,431 97 00:38:55,151 97 00:39:07,420 95 *** ***
9695MASTER_511201MAFFEI FRANCESCOASD CHIALA' CYCLING TEAM LOCOROTONDOnull+23:24:57 3 01:57:53,380 00:39:07,321 99 00:38:37,112 98 00:40:08,947 96 *** ***
9796MASTER_49210MANOLIO ANTONIOASD HERACLEA BIKE - MARINO BICI & SPORTnull+23:24:57 3 02:04:31,048 00:37:44,809 95 00:38:00,779 96 00:48:45,460 97 *** ***
9897MASTER_320163VICHI PATRIZIOASD GS PEDALE MASSAFRAnull+23:24:57 3 02:06:46,462 00:40:55,308 102 00:43:12,687 100 00:42:38,467 98 *** ***
9998MASTER_6+7196LABATE ANTONIO GENNAROASD CHIALA' CYCLING TEAM LOCOROTONDOnull+23:24:57 3 02:07:12,243 00:43:34,156 103 00:44:13,125 102 00:39:24,962 99 *** ***
10099ALLIEVI6123URSO MAUROTEAM PUGLIABIKEnull+23:24:57 3 02:09:07,560 00:39:33,010 100 00:43:52,097 99 00:45:42,453 100 *** ***
101100MASTER_115207COFANO STANISLAOASD HERACLEA BIKE - MARINO BICI & SPORTnull+23:24:57 3 02:10:53,994 00:40:52,662 101 00:44:41,878 101 00:45:19,454 101 *** ***
102101MASTER_41071CATAPANO PARIDEASD GS PEDALE MASSAFRAnull+23:24:57 2 01:04:38,303 00:32:52,782 72 00:31:45,521 71 *** *** *** ***
103102MASTER_41162CONTENTO GABRIELEASD I PIRATInull+23:24:57 2 01:40:37,320 00:38:47,193 98 01:01:50,127 103 *** *** *** ***
104103MASTER_321208CRUCINIO FRANCESCOASD HERACLEA BIKE - MARINO BICI & SPORTnull+23:24:57 2 01:41:46,421 00:47:29,512 104 00:54:16,909 104 *** *** *** ***
105104ALLIEVI7178SOLITO STEFANOASD CICLISTI MTB SAN PANCRAZIO SALENTINOnull+23:24:57 2 01:41:50,597 00:48:43,298 105 00:53:07,299 105 *** *** *** ***
Righe per pagina::     TUTTE    |   30   |   50   |   100   Pagina:   | 1 | | 2 | | 3 |